aviador You're here:

KHSI Decoded Metar

HASTINGS in NE, USA
Report Time2017-07-22 23:53:00
UTC Time2017-07-23 00:52:33
Flight Rules vfr VFR
Wind020° at 12 Gusting to 18 kt
W.Decomp.*RWY 04: 10.7 kt HW 5.4 kt LCW
RWY 32: 7.2 kt HW 9.6 kt RCW
W.Rank020° ranks 14
Current wind is above 020° avg. (10.1)
Visibility9999 m
Phenomena:N/A
Clouds:N/A
Expected CloudBase > 2,400 ft AGL from Temp-Dew spread
CeilingNone
Temp28°C (ISA +17)
Dew Point22°C (70% RH)
Heat Index30.7°C
QNH1015 hPa
Density Alt4,163 ft
Elevation1,939 ft
Report Wrong Elevation
Raw Report
KHSI 222353Z AUTO 02012G18KT 10SM CLR 28/22 A2997 RMK AO2 SLP131
T02830217 10311 20283 53001=

Extra information for KHSI:More info

Metar Taf Metar & Taf Last 4 Metars F.Rules Stats Wind Profile Meteogram Temp Stats Airport Information Weather charts Add Link Nearby VenuesMetar ALERT Operation Metar Decoded Social comments

AIRNAV info for KHSI